Huvudsida
METAR-TAF:

METAR-TAF

Flygplatser :

Ronneby Airport

Ronneby, Sverige

latitud: 56-16N, longitud: 015-17E, höjd: 58 m

Aktuellt väderrapport

Denna rapport gjordes för 18 minuter sedan, klockan 13:20 UTC
Vind 10 kt från väst/sydväst, varierande mellan syd/sydväst och väst
Temperatur 13°C
Fuktighet 88%
Tryck 1002 hPa
Sikt 10 km eller mer
Spridda moln på en höjd av 600 ft
Brutna moln på en höjd av 1000 ft

METAR: ESDF 261320Z 24010KT 200V260 9999 SCT006 BKN010 13/11 Q1002

Tid: 15:38 (13:38 UTC)

Väderprognos

Denna rapport gjordes för 2 timmar och 8 minuter sedan, klockan 11:30 UTC
Prognos gäller från 26 kl. 12 UTC till 26 kl. 21 UTC
Vind 15 kt från väst/sydväst i byarna ända upp till 25 kt
Sikt 10 km eller mer
Brutna moln på en höjd av 1200 ft
lätt regn
Temporärt
från 26 kl. 12 UTC till 26 kl. 15 UTC
Sikt: 4000 m
Brutna moln på en höjd av 800 ft
regn

TAF: ESDF 261130Z 2612/2621 24015G25KT 9999 -RA BKN012 TEMPO 2612/2615 4000 RA BKN008

Aktuella väderrapporter och prognoser från 4000 flygplatser (METAR- och TAF-rapporter).

De tillgängliga stationerna syns som gula och röda prickar på kartan.

För musen över prickarna för att se namnen på stationerna.

Klicka sedan för att få väderrapporter och prognoser.

För att ändra kartan: Klicka på de gröna knapparna med ett svart kors på för att zooma in; den gröna knappen med ett streck på för att zooma ut; eller på de gröna pilarna för angränsande kartor.


METAR-TAF: